createdAt,value
2022-11-08T00:01:36.126Z,1.20
2022-11-08T00:04:05.511Z,1.50
2022-11-08T00:06:51.418Z,1.50
2022-11-08T00:09:36.969Z,1.20
2022-11-08T00:12:24.254Z,1.60
2022-11-08T00:14:52.496Z,1.30
2022-11-08T00:17:21.634Z,1.30
2022-11-08T00:19:49.827Z,1.13
2022-11-08T00:22:18.515Z,1.33
2022-11-08T00:24:46.560Z,1.37
2022-11-08T00:27:18.421Z,1.20
2022-11-08T00:29:46.363Z,1.30
2022-11-08T00:32:16.490Z,1.30
2022-11-08T00:34:44.307Z,1.27
2022-11-08T00:37:12.667Z,1.37
2022-11-08T00:39:41.083Z,1.30
2022-11-08T00:42:09.325Z,1.17
2022-11-08T00:44:38.764Z,1.60
2022-11-08T00:47:07.094Z,1.10
2022-11-08T00:49:34.920Z,1.43
2022-11-08T00:52:02.782Z,1.20
2022-11-08T00:54:30.666Z,1.30
2022-11-08T00:56:58.495Z,1.20
2022-11-08T00:59:26.312Z,1.20
2022-11-08T01:01:55.702Z,1.10
2022-11-08T01:04:23.618Z,1.50
2022-11-08T01:06:51.540Z,1.60
2022-11-08T01:09:19.371Z,1.47
2022-11-08T01:11:47.853Z,1.80
2022-11-08T01:14:16.554Z,1.97
2022-11-08T01:16:45.276Z,1.57
2022-11-08T01:19:14.519Z,1.40
2022-11-08T01:21:42.383Z,1.30
2022-11-08T01:24:10.382Z,1.30
2022-11-08T01:26:38.241Z,1.60
2022-11-08T01:29:06.143Z,1.37
2022-11-08T01:31:34.308Z,1.33
2022-11-08T01:34:02.385Z,1.50
2022-11-08T01:36:31.596Z,1.50
2022-11-08T01:38:59.470Z,1.50
2022-11-08T01:41:28.282Z,1.63
2022-11-08T01:43:57.088Z,1.90
2022-11-08T01:46:36.298Z,1.40
2022-11-08T01:49:29.667Z,1.80
2022-11-08T01:52:09.439Z,1.53
2022-11-08T01:54:43.696Z,1.70
2022-11-08T01:57:15.606Z,1.33
2022-11-08T01:59:44.883Z,1.30
2022-11-08T02:02:13.388Z,1.77
2022-11-08T02:04:43.138Z,1.50
2022-11-08T02:07:14.046Z,1.33
2022-11-08T02:09:44.537Z,1.47
2022-11-08T02:12:13.775Z,1.60
2022-11-08T02:14:41.667Z,1.30
2022-11-08T02:17:10.560Z,1.50
2022-11-08T02:19:42.485Z,1.37
2022-11-08T02:22:30.119Z,1.47
2022-11-08T02:25:00.236Z,1.33
2022-11-08T02:27:28.246Z,1.40
2022-11-08T02:29:57.587Z,1.50
2022-11-08T02:32:25.765Z,1.83
2022-11-08T02:34:57.058Z,2.47
2022-11-08T02:37:28.036Z,2.00
2022-11-08T02:39:55.954Z,1.77
2022-11-08T02:42:25.304Z,1.60
2022-11-08T02:44:53.217Z,1.50
2022-11-08T02:47:21.077Z,1.40
2022-11-08T02:49:48.951Z,1.87
2022-11-08T02:52:17.037Z,1.87
2022-11-08T02:54:44.886Z,1.50
2022-11-08T02:57:12.780Z,1.50
2022-11-08T02:59:41.977Z,1.20
2022-11-08T03:02:10.006Z,1.60
2022-11-08T03:04:37.903Z,1.40
2022-11-08T03:07:05.750Z,1.57
2022-11-08T03:09:33.602Z,1.50
2022-11-08T03:12:01.478Z,1.30
2022-11-08T03:14:29.356Z,1.30
2022-11-08T03:16:58.565Z,1.40
2022-11-08T03:19:26.387Z,1.70
2022-11-08T03:21:54.249Z,1.40
2022-11-08T03:24:22.135Z,1.30
2022-11-08T03:26:49.985Z,1.17
2022-11-08T03:29:17.847Z,1.47
2022-11-08T03:31:45.723Z,1.40
2022-11-08T03:34:15.070Z,1.97
2022-11-08T03:36:42.927Z,1.97
2022-11-08T03:39:12.057Z,1.70
2022-11-08T03:41:40.075Z,1.60
2022-11-08T03:44:07.939Z,1.70
2022-11-08T03:46:35.820Z,1.93
2022-11-08T03:49:03.646Z,1.97
2022-11-08T03:51:32.843Z,1.97
2022-11-08T03:54:00.770Z,2.00
2022-11-08T03:56:28.722Z,1.53
2022-11-08T03:58:56.571Z,2.10
2022-11-08T04:01:24.542Z,1.80
2022-11-08T04:03:52.430Z,1.80
2022-11-08T04:06:20.289Z,1.80
2022-11-08T04:08:49.574Z,2.53
2022-11-08T04:11:34.869Z,2.17
2022-11-08T04:14:20.331Z,1.97
2022-11-08T04:16:48.301Z,2.40
2022-11-08T04:19:33.464Z,2.40
2022-11-08T04:22:01.423Z,2.03
2022-11-08T04:24:30.590Z,2.30
2022-11-08T04:26:58.441Z,2.23
2022-11-08T04:29:26.370Z,2.10
2022-11-08T04:31:54.234Z,2.50
2022-11-08T04:34:22.565Z,2.77
2022-11-08T04:36:50.454Z,2.67
2022-11-08T04:39:18.512Z,2.57
2022-11-08T04:41:47.691Z,2.70
2022-11-08T04:44:18.278Z,2.30
2022-11-08T04:46:46.157Z,2.77
2022-11-08T04:49:14.001Z,2.50
2022-11-08T04:51:41.871Z,2.90
2022-11-08T04:54:11.737Z,2.37
2022-11-08T04:56:41.624Z,2.77
2022-11-08T04:59:12.238Z,3.27
2022-11-08T05:01:40.519Z,3.00
2022-11-08T05:04:08.492Z,3.30
2022-11-08T05:06:36.341Z,3.10
2022-11-08T05:09:04.635Z,3.37
2022-11-08T05:11:32.628Z,3.10
2022-11-08T05:14:00.535Z,2.63
2022-11-08T05:16:31.883Z,3.30
2022-11-08T05:19:00.168Z,3.10
2022-11-08T05:21:46.234Z,3.40
2022-11-08T05:24:16.151Z,3.37
2022-11-08T05:26:45.813Z,3.30
2022-11-08T05:29:14.937Z,3.23
2022-11-08T05:31:44.143Z,3.73
2022-11-08T05:34:12.028Z,2.97
2022-11-08T05:36:39.849Z,2.77
2022-11-08T05:39:07.671Z,3.20
2022-11-08T05:41:35.560Z,3.73
2022-11-08T05:44:03.385Z,3.57
2022-11-08T05:46:31.297Z,3.53
2022-11-08T05:49:00.480Z,3.03
2022-11-08T05:51:28.342Z,3.03
2022-11-08T05:53:56.168Z,3.03
2022-11-08T05:56:24.198Z,2.97
2022-11-08T05:58:52.034Z,3.20
2022-11-08T06:01:21.099Z,2.97
2022-11-08T06:03:49.313Z,3.20
2022-11-08T06:06:20.559Z,3.70
2022-11-08T06:08:51.913Z,3.40
2022-11-08T06:11:23.466Z,2.93
2022-11-08T06:13:51.608Z,3.50
2022-11-08T06:16:21.016Z,3.30
2022-11-08T06:18:48.870Z,4.63
2022-11-08T06:21:20.117Z,5.83
2022-11-08T06:23:48.453Z,4.90
2022-11-08T06:26:16.318Z,4.70
2022-11-08T06:28:44.161Z,4.17
2022-11-08T06:31:12.126Z,4.13
2022-11-08T06:33:39.988Z,4.50
2022-11-08T06:36:08.731Z,3.77
2022-11-08T06:38:37.912Z,3.63
2022-11-08T06:41:05.811Z,4.27
2022-11-08T06:43:34.019Z,4.50
2022-11-08T06:46:03.094Z,4.30
2022-11-08T06:48:35.352Z,4.17
2022-11-08T06:51:04.274Z,4.30
2022-11-08T06:53:32.708Z,5.40
2022-11-08T06:56:02.230Z,4.67
2022-11-08T06:58:30.708Z,4.17
2022-11-08T07:00:58.880Z,5.13
2022-11-08T07:03:26.705Z,4.20
2022-11-08T07:05:54.712Z,5.00
2022-11-08T07:08:24.206Z,4.27
2022-11-08T07:10:52.409Z,5.90
2022-11-08T07:13:22.083Z,5.43
2022-11-08T07:15:50.439Z,4.93
2022-11-08T07:18:20.120Z,5.03
2022-11-08T07:20:48.420Z,4.97
2022-11-08T07:23:16.705Z,5.30
2022-11-08T07:25:44.838Z,4.67
2022-11-08T07:28:16.565Z,4.37
2022-11-08T07:30:46.150Z,4.50
2022-11-08T07:33:14.420Z,4.63
2022-11-08T07:35:42.947Z,4.50
2022-11-08T07:38:10.746Z,4.87
2022-11-08T07:40:38.581Z,4.30
2022-11-08T07:43:13.700Z,4.33
2022-11-08T07:45:42.309Z,4.33
2022-11-08T07:48:13.810Z,4.20
2022-11-08T07:50:42.842Z,4.10
2022-11-08T07:53:11.311Z,3.97
2022-11-08T07:55:40.207Z,3.20
2022-11-08T07:58:08.858Z,3.60
2022-11-08T08:00:38.598Z,2.93
2022-11-08T08:03:08.614Z,3.67
2022-11-08T08:05:39.552Z,3.43
2022-11-08T08:08:08.043Z,3.67
2022-11-08T08:10:36.350Z,3.20
2022-11-08T08:13:04.993Z,3.10
2022-11-08T08:15:33.404Z,3.20
2022-11-08T08:18:02.436Z,3.20
2022-11-08T08:20:30.959Z,3.70
2022-11-08T08:23:00.570Z,5.80
2022-11-08T08:25:30.897Z,6.70
2022-11-08T08:28:00.836Z,5.80
2022-11-08T08:30:29.600Z,6.00
2022-11-08T08:33:34.408Z,5.93
2022-11-08T08:35:54.444Z,6.10
2022-11-08T08:38:23.632Z,5.80
2022-11-08T08:40:51.651Z,5.80
2022-11-08T08:43:19.962Z,5.50
2022-11-08T08:45:48.766Z,5.60
2022-11-08T08:48:17.017Z,5.00
2022-11-08T08:50:44.904Z,4.80
2022-11-08T08:53:12.771Z,5.53
2022-11-08T08:55:42.880Z,4.50
2022-11-08T08:58:10.946Z,5.33
2022-11-08T09:03:26.760Z,5.33
2022-11-08T09:05:54.736Z,5.70
2022-11-08T09:08:22.592Z,5.80
2022-11-08T09:10:55.598Z,5.50
2022-11-08T09:13:23.804Z,5.10
2022-11-08T09:15:51.663Z,4.63
2022-11-08T09:18:20.039Z,4.10
2022-11-08T09:20:47.944Z,3.80
2022-11-08T09:23:17.915Z,4.00
2022-11-08T09:25:46.164Z,3.60
2022-11-08T09:28:15.370Z,2.77
2022-11-08T09:30:43.206Z,3.37
2022-11-08T09:33:11.090Z,3.23
2022-11-08T09:35:39.028Z,3.80
2022-11-08T09:38:07.357Z,3.03
2022-11-08T09:40:40.654Z,3.37
2022-11-08T09:43:23.048Z,3.10
2022-11-08T09:45:52.996Z,3.13
2022-11-08T09:48:25.764Z,2.40
2022-11-08T09:50:56.446Z,3.50
2022-11-08T09:53:35.212Z,3.53
2022-11-08T09:56:07.740Z,3.40
2022-11-08T09:58:41.965Z,3.13
2022-11-08T10:01:12.548Z,3.30
2022-11-08T10:03:44.930Z,3.50
2022-11-08T10:06:44.746Z,2.90
2022-11-08T10:09:31.520Z,3.00
2022-11-08T10:12:15.574Z,3.23
2022-11-08T10:15:01.399Z,3.43
2022-11-08T10:17:51.229Z,3.00
2022-11-08T10:20:28.499Z,3.03
2022-11-08T10:23:04.272Z,3.03
2022-11-08T10:25:38.031Z,3.30
2022-11-08T10:28:07.568Z,3.30
2022-11-08T10:30:39.595Z,3.00
2022-11-08T10:33:17.973Z,2.00
2022-11-08T10:35:49.293Z,2.20
2022-11-08T10:38:20.928Z,2.00
2022-11-08T10:40:58.204Z,1.70
2022-11-08T10:43:33.863Z,1.90
2022-11-08T10:46:03.100Z,2.03
2022-11-08T10:48:35.299Z,1.70
2022-11-08T10:51:03.148Z,2.40
2022-11-08T10:53:32.531Z,1.10
2022-11-08T10:56:01.983Z,1.40
2022-11-08T10:58:32.750Z,1.43
2022-11-08T11:01:04.093Z,1.40
2022-11-08T11:03:31.959Z,1.23
2022-11-08T11:06:01.566Z,1.27
2022-11-08T11:08:29.475Z,1.67
2022-11-08T11:11:14.277Z,1.40
2022-11-08T11:13:42.086Z,1.60
2022-11-08T11:16:15.289Z,1.70
2022-11-08T11:18:49.490Z,1.87
2022-11-08T11:21:19.090Z,1.70
2022-11-08T11:23:48.501Z,2.20
2022-11-08T11:26:29.046Z,1.97
2022-11-08T11:29:16.717Z,1.90
2022-11-08T11:31:47.925Z,2.00
2022-11-08T11:34:50.904Z,2.43
2022-11-08T11:37:28.963Z,2.30
2022-11-08T11:40:05.639Z,1.97
2022-11-08T11:42:45.726Z,2.20
2022-11-08T11:45:20.213Z,2.37
2022-11-08T11:47:53.503Z,2.07
2022-11-08T11:50:30.684Z,2.03
2022-11-08T11:53:00.894Z,1.90
2022-11-08T11:55:40.222Z,2.00
2022-11-08T11:58:20.457Z,1.80
2022-11-08T12:00:57.790Z,1.50
2022-11-08T12:03:40.042Z,1.67
2022-11-08T12:06:21.187Z,1.90
2022-11-08T12:09:00.242Z,1.60
2022-11-08T12:11:54.189Z,1.60
2022-11-08T12:14:42.352Z,1.60
2022-11-08T12:17:30.074Z,1.60
2022-11-08T12:20:20.404Z,1.10
2022-11-08T12:23:07.060Z,1.90
2022-11-08T12:25:43.667Z,1.70
2022-11-08T12:28:28.806Z,1.50
2022-11-08T12:31:04.062Z,1.60
2022-11-08T12:33:40.474Z,1.50
2022-11-08T12:36:22.062Z,1.30
2022-11-08T12:39:01.772Z,1.13
2022-11-08T12:41:35.581Z,1.80
2022-11-08T12:44:25.027Z,1.73
2022-11-08T12:47:09.203Z,1.47
2022-11-08T12:49:44.383Z,1.40
2022-11-08T12:52:28.158Z,1.27
2022-11-08T12:55:01.458Z,1.60
2022-11-08T12:57:31.215Z,1.70
2022-11-08T13:00:04.742Z,1.80
2022-11-08T13:02:36.949Z,1.70
2022-11-08T13:05:09.590Z,1.60
2022-11-08T13:07:46.492Z,1.47
2022-11-08T13:10:24.549Z,1.37
2022-11-08T13:13:06.695Z,1.70
2022-11-08T13:15:34.918Z,1.73
2022-11-08T13:18:25.201Z,1.57
2022-11-08T13:20:53.317Z,1.77
2022-11-08T13:23:29.639Z,1.87
2022-11-08T13:26:18.824Z,1.47
2022-11-08T13:28:47.667Z,1.70
2022-11-08T13:31:28.112Z,1.60
2022-11-08T13:34:19.007Z,1.80
2022-11-08T13:37:20.239Z,1.43
2022-11-08T13:40:21.890Z,1.50
2022-11-08T13:43:20.145Z,1.70
2022-11-08T13:45:48.479Z,1.70
2022-11-08T13:48:36.398Z,1.40
2022-11-08T13:51:24.184Z,1.60
2022-11-08T13:53:54.542Z,1.83
2022-11-08T13:56:50.300Z,3.00
2022-11-08T13:59:54.921Z,2.83
2022-11-08T14:02:36.460Z,6.80
2022-11-08T14:05:26.632Z,5.80
2022-11-08T14:08:09.683Z,6.67
2022-11-08T14:10:49.064Z,3.50
2022-11-08T14:13:24.842Z,1.93
2022-11-08T14:15:58.097Z,1.97
2022-11-08T14:18:29.029Z,1.47
2022-11-08T14:20:57.336Z,1.83
2022-11-08T14:23:29.112Z,1.50
2022-11-08T14:25:59.305Z,1.60
2022-11-08T14:28:30.371Z,1.60
2022-11-08T14:31:00.710Z,1.73
2022-11-08T14:33:30.575Z,1.97
2022-11-08T14:36:01.200Z,1.60
2022-11-08T14:38:30.798Z,1.73
2022-11-08T14:41:01.556Z,1.90
2022-11-08T14:43:31.335Z,2.00
2022-11-08T14:45:59.359Z,1.80
2022-11-08T14:48:30.167Z,1.70
2022-11-08T14:51:01.801Z,1.60
2022-11-08T14:53:31.611Z,2.40
2022-11-08T14:56:08.980Z,2.10
2022-11-08T14:58:38.423Z,1.83
2022-11-08T15:01:08.305Z,1.90
2022-11-08T15:03:37.067Z,2.23
2022-11-08T15:06:12.532Z,2.10
2022-11-08T15:08:48.920Z,2.53
2022-11-08T15:11:28.194Z,3.70
2022-11-08T15:14:00.213Z,3.00
2022-11-08T15:16:28.442Z,3.93
2022-11-08T15:18:56.492Z,3.20
2022-11-08T15:21:30.064Z,2.50
2022-11-08T15:24:12.253Z,3.37
2022-11-08T15:26:40.317Z,4.10
2022-11-08T15:29:19.393Z,3.40
2022-11-08T15:31:51.202Z,5.80
2022-11-08T15:34:22.418Z,4.17
2022-11-08T15:36:51.219Z,4.17
2022-11-08T15:39:23.486Z,3.80
2022-11-08T15:42:02.185Z,3.37
2022-11-08T15:44:31.686Z,3.07
2022-11-08T15:46:59.681Z,2.80
2022-11-08T15:49:29.628Z,2.70
2022-11-08T15:51:59.419Z,3.07
2022-11-08T15:54:27.824Z,2.80
2022-11-08T15:56:57.509Z,2.70
2022-11-08T15:59:28.605Z,2.43
2022-11-08T16:01:59.964Z,2.83
2022-11-08T16:04:29.185Z,2.47
2022-11-08T16:06:57.400Z,2.40
2022-11-08T16:09:25.278Z,2.40
2022-11-08T16:11:53.304Z,2.60
2022-11-08T16:14:24.268Z,2.10
2022-11-08T16:16:52.175Z,2.20
2022-11-08T16:19:23.611Z,1.87
2022-11-08T16:21:51.959Z,2.37
2022-11-08T16:24:20.121Z,2.67
2022-11-08T16:26:48.770Z,2.20
2022-11-08T16:29:21.696Z,1.93
2022-11-08T16:31:49.836Z,2.30
2022-11-08T16:34:18.214Z,2.07
2022-11-08T16:36:48.791Z,2.00
2022-11-08T16:39:18.539Z,2.20
2022-11-08T16:41:46.991Z,2.40
2022-11-08T16:44:14.866Z,2.47
2022-11-08T16:46:42.783Z,2.23
2022-11-08T16:49:20.769Z,2.10
2022-11-08T16:51:50.602Z,1.57
2022-11-08T16:54:20.550Z,2.30
2022-11-08T16:56:48.401Z,2.23
2022-11-08T16:59:16.304Z,2.73
2022-11-08T17:01:45.002Z,3.00
2022-11-08T17:04:12.884Z,3.47
2022-11-08T17:06:41.054Z,3.67
2022-11-08T17:09:10.444Z,3.90
2022-11-08T17:11:39.685Z,3.40
2022-11-08T17:14:07.636Z,3.27
2022-11-08T17:16:35.517Z,3.00
2022-11-08T17:19:04.298Z,2.73
2022-11-08T17:21:47.558Z,3.77
2022-11-08T17:24:21.540Z,2.87
2022-11-08T17:26:50.272Z,2.83
2022-11-08T17:29:18.117Z,2.67
2022-11-08T17:31:45.995Z,2.87
2022-11-08T17:34:13.839Z,2.87
2022-11-08T17:36:41.694Z,3.30
2022-11-08T17:39:11.856Z,3.37
2022-11-08T17:41:41.046Z,3.50
2022-11-08T17:44:08.904Z,3.50
2022-11-08T17:46:37.177Z,3.50
2022-11-08T17:49:05.003Z,4.00
2022-11-08T17:51:32.868Z,3.27
2022-11-08T17:54:00.709Z,3.50
2022-11-08T17:56:28.573Z,3.10
2022-11-08T17:58:57.804Z,3.23
2022-11-08T18:01:25.793Z,3.60
2022-11-08T18:03:53.735Z,3.60
2022-11-08T18:06:21.564Z,4.07
2022-11-08T18:08:49.699Z,3.93
2022-11-08T18:11:17.579Z,3.80
2022-11-08T18:13:45.420Z,3.80
2022-11-08T18:16:16.352Z,4.50
2022-11-08T18:18:47.217Z,5.23
2022-11-08T18:21:16.259Z,4.60
2022-11-08T18:23:45.232Z,4.57
2022-11-08T18:26:14.888Z,5.70
2022-11-08T18:28:44.028Z,6.20
2022-11-08T18:31:14.970Z,5.23
2022-11-08T18:33:43.505Z,5.70
2022-11-08T18:36:13.071Z,6.70
2022-11-08T18:38:44.385Z,6.20
2022-11-08T18:41:13.961Z,5.97
2022-11-08T18:43:41.890Z,7.00
2022-11-08T18:46:12.397Z,5.73
2022-11-08T18:48:41.904Z,4.93
2022-11-08T18:51:11.833Z,5.87
2022-11-08T18:53:40.336Z,5.80
2022-11-08T18:56:08.850Z,5.10
2022-11-08T18:58:36.882Z,5.30
2022-11-08T19:01:05.495Z,5.30
2022-11-08T19:03:34.559Z,5.60
2022-11-08T19:06:04.089Z,5.93
2022-11-08T19:08:32.541Z,6.47
2022-11-08T19:11:02.950Z,7.30
2022-11-08T19:13:33.573Z,6.60
2022-11-08T19:16:02.979Z,6.07
2022-11-08T19:18:32.077Z,5.90
2022-11-08T19:21:02.824Z,5.63
2022-11-08T19:23:32.404Z,5.30
2022-11-08T19:26:01.931Z,5.00
2022-11-08T19:28:33.025Z,4.60
2022-11-08T19:31:01.146Z,4.37
2022-11-08T19:33:30.847Z,3.67
2022-11-08T19:36:02.570Z,4.20
2022-11-08T19:38:32.941Z,3.80
2022-11-08T19:41:03.015Z,3.77
2022-11-08T19:43:31.037Z,4.30
2022-11-08T19:46:03.299Z,4.13
2022-11-08T19:48:32.054Z,4.07
2022-11-08T19:51:01.961Z,3.70
2022-11-08T19:53:31.934Z,2.70
2022-11-08T19:56:00.973Z,3.30
2022-11-08T19:58:29.045Z,2.93
2022-11-08T20:00:56.926Z,3.60
2022-11-08T20:03:24.909Z,4.30
2022-11-08T20:05:53.300Z,3.63
2022-11-08T20:08:21.990Z,3.97
2022-11-08T20:10:51.531Z,4.30
2022-11-08T20:13:19.595Z,4.33
2022-11-08T20:15:47.979Z,5.00
2022-11-08T20:18:16.379Z,4.40
2022-11-08T20:20:45.599Z,6.10
2022-11-08T20:23:16.712Z,6.50
2022-11-08T20:25:44.804Z,4.87
2022-11-08T20:28:14.270Z,5.17
2022-11-08T20:30:42.419Z,4.63
2022-11-08T20:33:10.282Z,4.27
2022-11-08T20:35:38.648Z,4.63
2022-11-08T20:38:06.523Z,6.00
2022-11-08T20:40:34.358Z,5.53
2022-11-08T20:43:02.200Z,5.37
2022-11-08T20:45:31.431Z,5.73
2022-11-08T20:48:02.643Z,5.57
2022-11-08T20:50:30.814Z,4.53
2022-11-08T20:52:58.655Z,5.80
2022-11-08T20:55:27.728Z,5.20
2022-11-08T20:57:55.546Z,7.67
2022-11-08T21:00:37.927Z,5.90
2022-11-08T21:03:17.754Z,6.43
2022-11-08T21:05:51.863Z,4.90
2022-11-08T21:11:09.112Z,4.90
2022-11-08T21:13:38.863Z,4.83
2022-11-08T21:16:28.279Z,4.97
2022-11-08T21:18:58.334Z,4.20
2022-11-08T21:21:26.929Z,4.50
2022-11-08T21:23:55.226Z,4.10
2022-11-08T21:26:23.782Z,6.80
2022-11-08T21:28:52.139Z,5.17
2022-11-08T21:31:20.179Z,6.60
2022-11-08T21:33:48.091Z,5.17
2022-11-08T21:36:18.247Z,3.30
2022-11-08T21:38:46.279Z,4.90
2022-11-08T21:41:14.126Z,5.67
2022-11-08T21:43:43.974Z,6.67
2022-11-08T21:46:20.005Z,5.97
2022-11-08T21:48:48.791Z,6.17
2022-11-08T21:51:17.942Z,5.30
2022-11-08T21:53:54.086Z,5.87
2022-11-08T21:56:23.524Z,5.00
2022-11-08T21:58:51.331Z,4.40
2022-11-08T22:01:19.740Z,3.80
2022-11-08T22:03:47.970Z,4.13
2022-11-08T22:06:17.120Z,4.10
2022-11-08T22:08:44.961Z,4.60
2022-11-08T22:11:12.800Z,4.57
2022-11-08T22:13:40.749Z,3.40
2022-11-08T22:16:08.898Z,4.53
2022-11-08T22:18:58.777Z,3.97
2022-11-08T22:21:43.136Z,3.80
2022-11-08T22:24:12.783Z,4.00
2022-11-08T22:26:41.580Z,4.10
2022-11-08T22:29:09.774Z,4.10
2022-11-08T22:31:38.173Z,4.37
2022-11-08T22:34:08.226Z,3.40
2022-11-08T22:36:44.073Z,4.20
2022-11-08T22:39:13.672Z,3.23
2022-11-08T22:41:41.621Z,3.93
2022-11-08T22:44:12.248Z,3.20
2022-11-08T22:46:40.857Z,3.97
2022-11-08T22:49:08.660Z,5.87
2022-11-08T22:51:37.859Z,4.67
2022-11-08T22:54:06.005Z,5.17
2022-11-08T22:56:34.055Z,4.13
2022-11-08T22:59:02.395Z,3.30
2022-11-08T23:01:30.223Z,2.97
2022-11-08T23:03:58.165Z,3.07
2022-11-08T23:06:26.129Z,2.53
2022-11-08T23:08:55.344Z,2.67
2022-11-08T23:11:40.806Z,3.60
2022-11-08T23:14:31.129Z,3.57
2022-11-08T23:17:03.441Z,4.93
2022-11-08T23:19:48.555Z,4.10
2022-11-08T23:22:35.054Z,3.60
2022-11-08T23:25:04.483Z,3.10
2022-11-08T23:27:49.831Z,3.00
2022-11-08T23:30:36.591Z,2.63
2022-11-08T23:33:05.581Z,2.97
2022-11-08T23:35:33.622Z,3.10
2022-11-08T23:38:01.468Z,3.20
2022-11-08T23:40:47.804Z,2.47
2022-11-08T23:43:34.588Z,2.97
2022-11-08T23:46:07.331Z,2.77
2022-11-08T23:48:36.643Z,3.37
2022-11-08T23:51:05.115Z,2.97
2022-11-08T23:53:34.445Z,2.47
2022-11-08T23:56:03.725Z,4.30
2022-11-08T23:58:31.567Z,6.80
